createdAt,value
2023-03-30T00:01:40.891Z,3.33
2023-03-30T00:04:08.717Z,3.57
2023-03-30T00:06:36.039Z,2.83
2023-03-30T00:09:03.581Z,3.33
2023-03-30T00:11:31.247Z,3.73
2023-03-30T00:13:58.806Z,3.87
2023-03-30T00:16:26.386Z,3.10
2023-03-30T00:18:53.949Z,3.77
2023-03-30T00:21:21.479Z,2.73
2023-03-30T00:23:49.028Z,2.37
2023-03-30T00:26:16.622Z,3.87
2023-03-30T00:28:44.138Z,2.93
2023-03-30T00:31:11.681Z,3.60
2023-03-30T00:33:46.638Z,2.70
2023-03-30T00:36:06.915Z,2.20
2023-03-30T00:38:34.386Z,1.93
2023-03-30T00:41:02.427Z,2.87
2023-03-30T00:43:29.528Z,2.20
2023-03-30T00:48:30.317Z,2.10
2023-03-30T00:50:57.862Z,1.90
2023-03-30T00:53:27.899Z,2.60
2023-03-30T00:55:55.492Z,1.77
2023-03-30T00:58:23.065Z,1.70
2023-03-30T01:00:50.620Z,2.10
2023-03-30T01:03:18.265Z,1.87
2023-03-30T01:05:45.720Z,2.07
2023-03-30T01:08:13.255Z,2.40
2023-03-30T01:10:41.579Z,2.23
2023-03-30T01:13:11.825Z,2.43
2023-03-30T01:15:39.300Z,2.30
2023-03-30T01:18:06.920Z,1.93
2023-03-30T01:20:42.765Z,2.03
2023-03-30T01:23:12.740Z,2.57
2023-03-30T01:26:04.113Z,2.10
2023-03-30T01:28:55.280Z,1.97
2023-03-30T01:31:55.580Z,1.90
2023-03-30T01:34:28.818Z,2.40
2023-03-30T01:37:14.234Z,2.00
2023-03-30T01:39:56.969Z,2.13
2023-03-30T01:42:33.189Z,2.30
2023-03-30T01:45:15.602Z,2.43
2023-03-30T01:47:45.612Z,2.20
2023-03-30T01:50:27.547Z,2.13
2023-03-30T01:52:57.775Z,2.17
2023-03-30T01:55:25.306Z,3.33
2023-03-30T01:57:52.867Z,2.50
2023-03-30T02:00:20.433Z,2.83
2023-03-30T02:02:53.636Z,2.67
2023-03-30T02:05:21.155Z,2.30
2023-03-30T02:07:48.708Z,2.40
2023-03-30T02:10:16.243Z,2.37
2023-03-30T02:12:43.798Z,2.73
2023-03-30T02:15:11.425Z,2.83
2023-03-30T02:17:38.989Z,2.93
2023-03-30T02:20:06.528Z,2.50
2023-03-30T02:22:34.064Z,3.10
2023-03-30T02:25:01.610Z,2.57
2023-03-30T02:27:29.167Z,3.07
2023-03-30T02:29:56.721Z,2.47
2023-03-30T02:32:29.961Z,2.40
2023-03-30T02:35:06.236Z,2.83
2023-03-30T02:37:51.636Z,2.57
2023-03-30T02:40:21.871Z,3.10
2023-03-30T02:42:52.306Z,2.57
2023-03-30T02:45:37.980Z,2.60
2023-03-30T02:48:17.103Z,2.37
2023-03-30T02:50:47.153Z,2.57
2023-03-30T02:53:20.346Z,2.85
2023-03-30T02:55:53.361Z,2.90
2023-03-30T02:58:20.913Z,2.63
2023-03-30T03:00:51.403Z,2.73
2023-03-30T03:03:24.674Z,2.90
2023-03-30T03:05:52.117Z,2.90
2023-03-30T03:08:19.670Z,2.67
2023-03-30T03:10:47.212Z,2.57
2023-03-30T03:13:14.748Z,2.87
2023-03-30T03:15:42.294Z,3.00
2023-03-30T03:18:09.815Z,2.83
2023-03-30T03:20:37.374Z,2.57
2023-03-30T03:23:04.966Z,2.97
2023-03-30T03:25:32.517Z,2.77
2023-03-30T03:28:00.121Z,3.67
2023-03-30T03:30:27.670Z,3.50
2023-03-30T03:32:55.223Z,3.17
2023-03-30T03:35:22.816Z,3.37
2023-03-30T03:37:50.358Z,3.70
2023-03-30T03:40:17.904Z,3.70
2023-03-30T03:42:45.497Z,4.47
2023-03-30T03:45:13.052Z,3.80
2023-03-30T03:47:40.608Z,3.53
2023-03-30T03:50:08.181Z,4.30
2023-03-30T03:52:38.190Z,4.30
2023-03-30T03:55:05.740Z,4.27
2023-03-30T03:57:33.387Z,3.50
2023-03-30T04:00:00.901Z,3.73
2023-03-30T04:02:28.569Z,3.83
2023-03-30T04:04:56.149Z,2.80
2023-03-30T04:07:23.641Z,3.07
2023-03-30T04:09:51.167Z,3.10
2023-03-30T04:12:18.759Z,3.27
2023-03-30T04:14:46.288Z,3.43
2023-03-30T04:17:13.830Z,2.73
2023-03-30T04:19:41.422Z,2.73
2023-03-30T04:22:08.971Z,3.00
2023-03-30T04:24:36.482Z,2.87
2023-03-30T04:27:04.117Z,2.60
2023-03-30T04:29:31.670Z,3.45
2023-03-30T04:31:59.293Z,2.30
2023-03-30T04:34:26.826Z,2.47
2023-03-30T04:36:54.349Z,2.50
2023-03-30T04:39:21.893Z,2.80
2023-03-30T04:41:49.528Z,2.13
2023-03-30T04:44:17.052Z,2.50
2023-03-30T04:46:44.589Z,2.40
2023-03-30T04:49:12.671Z,2.43
2023-03-30T04:51:40.208Z,2.60
2023-03-30T04:54:07.745Z,2.53
2023-03-30T04:56:35.319Z,2.37
2023-03-30T04:59:02.865Z,2.47
2023-03-30T05:01:30.430Z,2.43
2023-03-30T05:03:57.966Z,3.00
2023-03-30T05:06:25.506Z,2.37
2023-03-30T05:08:53.049Z,2.63
2023-03-30T05:11:20.688Z,2.83
2023-03-30T05:13:48.220Z,2.60
2023-03-30T05:16:15.789Z,2.17
2023-03-30T05:18:43.355Z,2.50
2023-03-30T05:21:10.887Z,2.90
2023-03-30T05:23:38.433Z,2.50
2023-03-30T05:26:06.117Z,2.83
2023-03-30T05:28:33.611Z,2.73
2023-03-30T05:31:01.240Z,3.00
2023-03-30T05:33:28.744Z,2.83
2023-03-30T05:35:56.288Z,2.50
2023-03-30T05:38:23.817Z,2.60
2023-03-30T05:40:54.306Z,2.73
2023-03-30T05:43:21.853Z,2.67
2023-03-30T05:45:49.358Z,3.00
2023-03-30T05:48:16.949Z,2.13
2023-03-30T05:50:44.507Z,2.67
2023-03-30T05:53:12.041Z,2.50
2023-03-30T05:55:39.575Z,2.43
2023-03-30T05:58:07.142Z,3.40
2023-03-30T06:00:34.676Z,2.30
2023-03-30T06:03:02.368Z,2.77
2023-03-30T06:05:29.819Z,2.63
2023-03-30T06:07:57.321Z,2.93
2023-03-30T06:10:24.886Z,2.70
2023-03-30T06:12:52.408Z,2.90
2023-03-30T06:15:19.941Z,2.60
2023-03-30T06:17:47.531Z,2.97
2023-03-30T06:20:15.052Z,3.00
2023-03-30T06:22:42.596Z,2.60
2023-03-30T06:25:10.172Z,2.80
2023-03-30T06:27:37.727Z,2.73
2023-03-30T06:30:05.250Z,3.00
2023-03-30T06:32:32.872Z,3.30
2023-03-30T06:35:00.360Z,3.40
2023-03-30T06:37:27.898Z,2.70
2023-03-30T06:39:55.440Z,2.67
2023-03-30T06:42:23.004Z,2.93
2023-03-30T06:44:50.554Z,2.67
2023-03-30T06:47:18.081Z,3.07
2023-03-30T06:49:45.681Z,2.63
2023-03-30T06:52:13.218Z,2.83
2023-03-30T06:54:40.742Z,2.33
2023-03-30T06:57:08.341Z,3.00
2023-03-30T06:59:35.860Z,2.40
2023-03-30T07:02:03.401Z,2.92
2023-03-30T07:04:31.357Z,2.60
2023-03-30T07:06:58.837Z,3.00
2023-03-30T07:09:26.392Z,2.03
2023-03-30T07:11:56.273Z,2.40
2023-03-30T07:14:22.227Z,2.57
2023-03-30T07:16:49.821Z,2.67
2023-03-30T07:19:17.349Z,2.50
2023-03-30T07:21:44.893Z,2.90
2023-03-30T07:24:12.427Z,2.27
2023-03-30T07:26:40.007Z,2.50
2023-03-30T07:29:07.557Z,2.10
2023-03-30T07:31:35.134Z,2.43
2023-03-30T07:34:02.661Z,2.07
2023-03-30T07:36:30.180Z,2.10
2023-03-30T07:38:57.720Z,2.23
2023-03-30T07:41:25.300Z,1.90
2023-03-30T07:43:52.809Z,2.43
2023-03-30T07:46:20.385Z,2.20
2023-03-30T07:48:47.927Z,2.17
2023-03-30T07:51:15.464Z,2.30
2023-03-30T07:53:43.029Z,3.03
2023-03-30T07:56:10.626Z,1.97
2023-03-30T07:58:38.143Z,2.30
2023-03-30T08:01:06.016Z,2.13
2023-03-30T08:03:33.447Z,2.17
2023-03-30T08:06:00.804Z,1.80
2023-03-30T08:08:28.323Z,2.27
2023-03-30T08:10:55.911Z,2.03
2023-03-30T08:13:23.450Z,2.20
2023-03-30T08:15:51.023Z,2.37
2023-03-30T08:18:18.579Z,2.33
2023-03-30T08:20:46.118Z,2.07
2023-03-30T08:23:13.656Z,2.40
2023-03-30T08:25:41.251Z,1.70
2023-03-30T08:28:08.796Z,2.17
2023-03-30T08:30:36.330Z,2.10
2023-03-30T08:33:04.658Z,2.47
2023-03-30T08:35:32.196Z,2.03
2023-03-30T08:37:59.694Z,2.10
2023-03-30T08:40:27.277Z,1.60
2023-03-30T08:42:57.706Z,1.53
2023-03-30T08:45:25.330Z,1.37
2023-03-30T08:47:52.889Z,1.90
2023-03-30T08:50:26.097Z,1.60
2023-03-30T08:52:53.635Z,1.23
2023-03-30T08:55:26.645Z,1.40
2023-03-30T08:58:02.886Z,2.00
2023-03-30T09:00:30.450Z,1.20
2023-03-30T09:03:00.799Z,1.60
2023-03-30T09:05:31.008Z,1.93
2023-03-30T09:08:16.370Z,1.00
2023-03-30T09:10:43.900Z,1.60
2023-03-30T09:13:11.420Z,1.30
2023-03-30T09:15:44.667Z,1.70
2023-03-30T09:18:29.795Z,1.50
2023-03-30T09:20:59.859Z,1.97
2023-03-30T09:23:27.408Z,1.40
2023-03-30T09:25:58.747Z,1.20
2023-03-30T09:28:40.224Z,1.67
2023-03-30T09:31:08.028Z,1.53
2023-03-30T09:33:47.926Z,1.70
2023-03-30T09:36:33.912Z,1.60
2023-03-30T09:39:01.439Z,1.77
2023-03-30T09:41:37.874Z,1.23
2023-03-30T09:44:06.167Z,1.17
2023-03-30T09:46:33.780Z,1.70
2023-03-30T09:49:13.079Z,1.50
2023-03-30T09:51:40.620Z,1.45
2023-03-30T09:54:08.161Z,1.03
2023-03-30T09:56:35.736Z,1.30
2023-03-30T09:59:30.238Z,1.50
2023-03-30T10:02:18.273Z,1.37
2023-03-30T10:04:54.765Z,1.10
2023-03-30T10:07:30.903Z,1.20
2023-03-30T10:09:58.422Z,1.07
2023-03-30T10:12:26.005Z,1.37
2023-03-30T10:14:56.257Z,1.70
2023-03-30T10:17:26.579Z,1.30
2023-03-30T10:20:03.622Z,1.23
2023-03-30T10:22:21.654Z,1.87
2023-03-30T10:24:49.189Z,1.13
2023-03-30T10:27:16.721Z,1.40
2023-03-30T10:29:47.723Z,1.43
2023-03-30T10:32:15.263Z,1.10
2023-03-30T10:34:45.190Z,1.33
2023-03-30T10:37:12.780Z,1.10
2023-03-30T10:39:40.299Z,1.13
2023-03-30T10:42:08.118Z,1.40
2023-03-30T10:44:35.903Z,1.30
2023-03-30T10:47:15.242Z,1.20
2023-03-30T10:49:48.733Z,1.40
2023-03-30T10:52:23.121Z,1.40
2023-03-30T10:54:53.441Z,1.40
2023-03-30T10:57:21.129Z,1.17
2023-03-30T11:00:03.445Z,1.30
2023-03-30T11:02:39.781Z,1.57
2023-03-30T11:05:15.992Z,1.00
2023-03-30T11:07:46.219Z,1.23
2023-03-30T11:10:34.815Z,1.73
2023-03-30T11:13:04.977Z,1.23
2023-03-30T11:15:38.207Z,1.23
2023-03-30T11:18:11.539Z,2.00
2023-03-30T11:20:41.530Z,1.30
2023-03-30T11:23:32.760Z,1.17
2023-03-30T11:26:02.997Z,1.20
2023-03-30T11:28:51.487Z,0.80
2023-03-30T11:31:39.760Z,1.53
2023-03-30T11:34:21.763Z,1.37
2023-03-30T11:37:10.494Z,1.33
2023-03-30T11:39:38.109Z,1.40
2023-03-30T11:42:14.409Z,1.67
2023-03-30T11:44:41.964Z,1.50
2023-03-30T11:47:36.511Z,1.27
2023-03-30T11:50:06.940Z,1.00
2023-03-30T11:52:58.208Z,1.00
2023-03-30T11:55:25.741Z,0.70
2023-03-30T11:58:03.618Z,1.33
2023-03-30T12:00:43.882Z,1.13
2023-03-30T12:03:29.150Z,1.00
2023-03-30T12:06:15.689Z,1.03
2023-03-30T12:08:46.142Z,1.00
2023-03-30T12:11:13.692Z,1.00
2023-03-30T12:13:50.777Z,0.70
2023-03-30T12:16:09.045Z,1.13
2023-03-30T12:18:39.151Z,1.40
2023-03-30T12:21:06.780Z,0.97
2023-03-30T12:23:40.002Z,1.10
2023-03-30T12:26:18.994Z,1.37
2023-03-30T12:29:11.299Z,1.20
2023-03-30T12:31:14.115Z,1.13
2023-03-30T12:33:47.340Z,1.00
2023-03-30T12:36:32.448Z,1.62
2023-03-30T12:39:02.688Z,1.33
2023-03-30T12:41:30.185Z,1.33
2023-03-30T12:44:06.495Z,1.42
2023-03-30T12:46:54.583Z,1.40
2023-03-30T12:49:30.865Z,1.40
2023-03-30T12:52:01.126Z,1.67
2023-03-30T12:54:49.849Z,1.60
2023-03-30T12:57:26.265Z,2.00
2023-03-30T12:59:53.750Z,2.30
2023-03-30T13:02:45.272Z,1.27
2023-03-30T13:05:21.202Z,1.43
2023-03-30T13:07:48.733Z,1.53
2023-03-30T13:10:31.172Z,1.37
2023-03-30T13:12:58.698Z,1.30
2023-03-30T13:15:53.481Z,1.10
2023-03-30T13:18:23.703Z,1.20
2023-03-30T13:20:51.234Z,1.53
2023-03-30T13:23:21.706Z,1.67
2023-03-30T13:26:00.620Z,1.57
2023-03-30T13:28:45.745Z,1.03
2023-03-30T13:31:21.963Z,1.70
2023-03-30T13:33:49.444Z,1.70
2023-03-30T13:36:19.622Z,1.00
2023-03-30T13:38:52.602Z,1.97
2023-03-30T13:41:22.859Z,1.10
2023-03-30T13:43:55.995Z,1.00
2023-03-30T13:46:50.149Z,2.00
2023-03-30T13:49:23.473Z,1.60
2023-03-30T13:51:51.021Z,1.67
2023-03-30T13:54:18.666Z,1.70
2023-03-30T13:56:48.966Z,1.40
2023-03-30T13:59:19.138Z,1.20
2023-03-30T14:01:46.992Z,0.90
2023-03-30T14:04:14.513Z,1.90
2023-03-30T14:06:42.027Z,0.90
2023-03-30T14:09:09.593Z,0.90
2023-03-30T14:11:45.851Z,0.93
2023-03-30T14:14:22.003Z,0.90
2023-03-30T14:16:49.548Z,0.95
2023-03-30T14:19:20.064Z,1.25
2023-03-30T14:21:47.620Z,0.83
2023-03-30T14:24:17.983Z,1.07
2023-03-30T14:26:48.006Z,0.73
2023-03-30T14:29:21.284Z,0.80
2023-03-30T14:31:45.764Z,1.07
2023-03-30T14:34:22.615Z,1.00
2023-03-30T14:36:50.151Z,1.10
2023-03-30T14:39:17.700Z,1.30
2023-03-30T14:41:45.293Z,1.13
2023-03-30T14:44:12.804Z,1.10
2023-03-30T14:46:43.154Z,2.37
2023-03-30T14:49:25.782Z,1.30
2023-03-30T14:51:54.381Z,1.30
2023-03-30T14:54:21.882Z,1.50
2023-03-30T14:56:52.058Z,1.60
2023-03-30T14:59:19.541Z,2.40
2023-03-30T15:01:47.112Z,1.27
2023-03-30T15:04:15.685Z,2.05
2023-03-30T15:06:43.158Z,1.80
2023-03-30T15:09:13.137Z,1.63
2023-03-30T15:11:40.713Z,1.47
2023-03-30T15:14:08.262Z,1.27
2023-03-30T15:16:35.919Z,1.70
2023-03-30T15:19:06.294Z,1.30
2023-03-30T15:21:33.831Z,2.27
2023-03-30T15:24:01.373Z,1.70
2023-03-30T15:26:29.199Z,1.40
2023-03-30T15:28:56.737Z,1.13
2023-03-30T15:31:24.378Z,1.30
2023-03-30T15:33:54.678Z,1.37
2023-03-30T15:36:24.879Z,1.70
2023-03-30T15:38:58.012Z,1.93
2023-03-30T15:41:25.555Z,1.80
2023-03-30T15:44:11.117Z,2.13
2023-03-30T15:46:38.797Z,2.33
2023-03-30T15:49:06.264Z,2.60
2023-03-30T15:51:36.465Z,1.40
2023-03-30T15:54:16.122Z,1.85
2023-03-30T15:56:46.121Z,2.27
2023-03-30T15:59:16.732Z,1.30
2023-03-30T16:01:44.327Z,1.93
2023-03-30T16:04:11.825Z,1.70
2023-03-30T16:06:40.988Z,1.60
2023-03-30T16:09:06.927Z,1.77
2023-03-30T16:11:34.457Z,1.55
2023-03-30T16:14:02.001Z,1.40
2023-03-30T16:16:29.643Z,1.37
2023-03-30T16:18:57.108Z,1.30
2023-03-30T16:21:24.640Z,1.70
2023-03-30T16:23:52.231Z,1.40
2023-03-30T16:26:19.762Z,1.60
2023-03-30T16:28:47.368Z,1.03
2023-03-30T16:31:15.000Z,1.40
2023-03-30T16:33:42.469Z,1.80
2023-03-30T16:36:10.076Z,1.63
2023-03-30T16:38:37.582Z,3.07
2023-03-30T16:41:05.236Z,3.37
2023-03-30T16:43:32.636Z,2.93
2023-03-30T16:46:00.285Z,2.77
2023-03-30T16:48:27.950Z,1.73
2023-03-30T16:50:55.347Z,1.30
2023-03-30T16:53:22.911Z,1.77
2023-03-30T16:55:50.446Z,2.13
2023-03-30T16:58:17.996Z,2.40
2023-03-30T17:00:45.705Z,2.17
2023-03-30T17:03:13.175Z,3.25
2023-03-30T17:05:40.754Z,2.10
2023-03-30T17:08:08.297Z,3.20
2023-03-30T17:10:35.833Z,2.73
2023-03-30T17:13:03.357Z,2.73
2023-03-30T17:15:31.010Z,2.90
2023-03-30T17:17:58.594Z,1.30
2023-03-30T17:20:49.641Z,1.30
2023-03-30T17:23:17.188Z,0.53
2023-03-30T17:25:46.331Z,0.90
2023-03-30T17:28:24.192Z,1.20
2023-03-30T17:30:51.703Z,0.80
2023-03-30T17:33:19.226Z,0.73
2023-03-30T17:35:49.900Z,0.73
2023-03-30T17:38:17.393Z,0.60
2023-03-30T17:40:44.937Z,1.20
2023-03-30T17:43:12.565Z,1.50
2023-03-30T17:45:40.031Z,1.73
2023-03-30T17:48:07.639Z,1.00
2023-03-30T17:50:35.138Z,0.80
2023-03-30T17:53:02.691Z,0.90
2023-03-30T17:55:30.232Z,1.00
2023-03-30T17:57:57.804Z,0.77
2023-03-30T18:00:25.337Z,0.73
2023-03-30T18:02:52.908Z,0.90
2023-03-30T18:05:20.442Z,1.33
2023-03-30T18:07:47.978Z,0.90
2023-03-30T18:10:33.137Z,1.20
2023-03-30T18:13:00.665Z,0.70
2023-03-30T18:15:28.229Z,1.20
2023-03-30T18:17:55.855Z,0.70
2023-03-30T18:20:41.264Z,1.10
2023-03-30T18:23:08.849Z,2.30
2023-03-30T18:25:36.381Z,2.00
2023-03-30T18:28:03.957Z,1.43
2023-03-30T18:30:31.595Z,2.13
2023-03-30T18:32:59.197Z,1.27
2023-03-30T18:35:26.709Z,1.10
2023-03-30T18:37:54.552Z,0.90
2023-03-30T18:40:25.032Z,1.20
2023-03-30T18:42:52.595Z,0.80
2023-03-30T18:45:28.964Z,1.30
2023-03-30T18:47:56.551Z,0.60
2023-03-30T18:50:32.690Z,0.70
2023-03-30T18:53:00.551Z,1.10
2023-03-30T18:55:28.081Z,0.53
2023-03-30T18:57:55.632Z,0.50
2023-03-30T19:00:23.244Z,0.63
2023-03-30T19:02:50.894Z,0.40
2023-03-30T19:05:18.316Z,0.53
2023-03-30T19:07:45.897Z,0.97
2023-03-30T19:10:13.427Z,0.90
2023-03-30T19:12:40.967Z,0.73
2023-03-30T19:15:08.556Z,0.67
2023-03-30T19:17:37.168Z,0.80
2023-03-30T19:20:04.700Z,1.07
2023-03-30T19:22:32.292Z,1.40
2023-03-30T19:24:59.822Z,1.10
2023-03-30T19:27:27.356Z,1.40
2023-03-30T19:29:54.998Z,1.30
2023-03-30T19:32:22.553Z,0.63
2023-03-30T19:34:50.095Z,0.60
2023-03-30T19:37:17.680Z,0.93
2023-03-30T19:39:45.200Z,0.70
2023-03-30T19:42:12.721Z,0.90
2023-03-30T19:44:40.291Z,0.57
2023-03-30T19:47:07.838Z,0.70
2023-03-30T19:49:35.375Z,0.90
2023-03-30T19:52:02.932Z,0.53
2023-03-30T19:54:30.470Z,0.50
2023-03-30T19:56:58.036Z,0.90
2023-03-30T19:59:25.849Z,0.60
2023-03-30T20:01:53.455Z,0.80
2023-03-30T20:04:20.911Z,0.70
2023-03-30T20:06:48.523Z,0.63
2023-03-30T20:09:16.062Z,0.70
2023-03-30T20:11:43.581Z,0.80
2023-03-30T20:14:11.208Z,0.80
2023-03-30T20:16:38.786Z,0.60
2023-03-30T20:19:15.897Z,0.90
2023-03-30T20:21:33.906Z,0.80
2023-03-30T20:24:01.429Z,1.03
2023-03-30T20:26:28.961Z,0.77
2023-03-30T20:28:56.557Z,0.90
2023-03-30T20:31:24.071Z,0.77
2023-03-30T20:33:51.607Z,0.83
2023-03-30T20:36:19.178Z,2.67
2023-03-30T20:38:46.717Z,1.70
2023-03-30T20:41:14.255Z,0.90
2023-03-30T20:43:53.224Z,1.50
2023-03-30T20:46:09.690Z,2.27
2023-03-30T20:48:39.511Z,2.40
2023-03-30T20:51:07.387Z,2.47
2023-03-30T20:53:34.682Z,13.07
2023-03-30T20:56:02.259Z,8.47
2023-03-30T20:58:29.844Z,5.27
2023-03-30T21:00:59.875Z,2.80
2023-03-30T21:03:27.368Z,4.47
2023-03-30T21:06:04.068Z,2.17
2023-03-30T21:08:31.293Z,1.90
2023-03-30T21:10:58.810Z,1.80
2023-03-30T21:13:26.465Z,1.63
2023-03-30T21:15:56.675Z,2.47
2023-03-30T21:18:24.202Z,1.33
2023-03-30T21:20:51.776Z,1.57
2023-03-30T21:23:19.298Z,1.53
2023-03-30T21:25:46.840Z,1.40
2023-03-30T21:28:14.933Z,1.20
2023-03-30T21:30:42.495Z,1.10
2023-03-30T21:33:10.016Z,1.20
2023-03-30T21:35:37.624Z,1.20
2023-03-30T21:38:05.094Z,2.23
2023-03-30T21:40:32.618Z,4.60
2023-03-30T21:43:00.213Z,3.40
2023-03-30T21:45:27.739Z,3.00
2023-03-30T21:47:55.283Z,3.80
2023-03-30T21:50:22.837Z,4.47
2023-03-30T21:52:50.362Z,3.87
2023-03-30T21:55:17.885Z,2.60
2023-03-30T21:57:45.438Z,1.50
2023-03-30T22:00:13.059Z,1.40
2023-03-30T22:02:40.683Z,2.47
2023-03-30T22:05:08.154Z,2.28
2023-03-30T22:07:35.712Z,1.53
2023-03-30T22:10:03.222Z,2.83
2023-03-30T22:12:30.788Z,2.40
2023-03-30T22:14:58.322Z,3.70
2023-03-30T22:17:25.876Z,3.10
2023-03-30T22:19:53.417Z,2.80
2023-03-30T22:22:20.948Z,2.65
2023-03-30T22:24:48.473Z,2.78
2023-03-30T22:27:16.031Z,2.20
2023-03-30T22:29:43.580Z,2.50
2023-03-30T22:32:11.160Z,2.10
2023-03-30T22:34:38.705Z,2.10
2023-03-30T22:37:06.269Z,3.60
2023-03-30T22:39:33.761Z,2.53
2023-03-30T22:42:02.097Z,2.10
2023-03-30T22:44:29.608Z,1.70
2023-03-30T22:46:57.143Z,1.90
2023-03-30T22:49:24.755Z,2.40
2023-03-30T22:51:53.245Z,2.40
2023-03-30T22:54:19.801Z,1.73
2023-03-30T22:56:47.404Z,1.90
2023-03-30T22:59:14.887Z,2.37
2023-03-30T23:01:42.475Z,2.63
2023-03-30T23:04:10.048Z,2.92
2023-03-30T23:06:37.574Z,3.37
2023-03-30T23:09:05.100Z,2.10
2023-03-30T23:11:32.673Z,2.17
2023-03-30T23:14:02.882Z,3.93
2023-03-30T23:16:30.454Z,3.43
2023-03-30T23:18:57.978Z,3.20
2023-03-30T23:21:25.506Z,4.23
2023-03-30T23:23:53.037Z,3.40
2023-03-30T23:26:20.591Z,2.90
2023-03-30T23:28:48.143Z,2.40
2023-03-30T23:31:15.734Z,3.07
2023-03-30T23:33:43.193Z,2.17
2023-03-30T23:36:11.058Z,2.97
2023-03-30T23:38:38.323Z,2.97
2023-03-30T23:41:05.844Z,2.83
2023-03-30T23:43:33.421Z,2.80
2023-03-30T23:46:00.976Z,2.23
2023-03-30T23:48:28.475Z,1.80
2023-03-30T23:50:56.043Z,2.17
2023-03-30T23:53:23.586Z,1.47
2023-03-30T23:55:51.106Z,1.30
2023-03-30T23:58:18.685Z,1.20
